createdAt,value
2022-09-20T00:02:10.060Z,28.75
2022-09-20T00:04:40.642Z,27.88
2022-09-20T00:07:10.489Z,27.75
2022-09-20T00:09:43.300Z,28.88
2022-09-20T00:12:13.350Z,28.38
2022-09-20T00:14:43.127Z,28.80
2022-09-20T00:17:13.145Z,28.73
2022-09-20T00:19:43.065Z,28.58
2022-09-20T00:22:12.951Z,28.20
2022-09-20T00:24:46.777Z,28.33
2022-09-20T00:27:19.146Z,30.55
2022-09-20T00:29:49.063Z,30.02
2022-09-20T00:32:19.761Z,28.73
2022-09-20T00:35:07.687Z,27.83
2022-09-20T00:37:41.923Z,29.42
2022-09-20T00:40:22.214Z,30.30
2022-09-20T00:42:52.825Z,29.27
2022-09-20T00:45:31.344Z,28.92
2022-09-20T00:48:28.099Z,29.40
2022-09-20T00:51:07.032Z,42.83
2022-09-20T00:53:44.743Z,32.83
2022-09-20T00:56:22.403Z,30.98
2022-09-20T00:59:09.761Z,30.52
2022-09-20T01:01:40.779Z,29.67
2022-09-20T01:04:13.195Z,30.73
2022-09-20T01:06:46.882Z,30.98
2022-09-20T01:09:17.028Z,33.72
2022-09-20T01:11:49.115Z,43.55
2022-09-20T01:14:24.026Z,79.32
2022-09-20T01:17:02.898Z,38.85
2022-09-20T01:19:44.857Z,31.98
2022-09-20T01:22:34.045Z,29.20
2022-09-20T01:25:18.755Z,29.65
2022-09-20T01:27:52.732Z,31.10
2022-09-20T01:30:33.317Z,31.02
2022-09-20T01:33:36.920Z,31.77
2022-09-20T01:36:28.816Z,33.30
2022-09-20T01:39:38.189Z,38.75
2022-09-20T01:42:11.485Z,40.53
2022-09-20T01:45:02.650Z,39.38
2022-09-20T01:47:53.682Z,40.33
2022-09-20T01:50:46.993Z,36.03
2022-09-20T01:53:33.196Z,39.65
2022-09-20T01:56:18.296Z,38.65
2022-09-20T01:59:23.087Z,36.33
2022-09-20T02:01:56.470Z,32.78
2022-09-20T02:04:53.248Z,33.90
2022-09-20T02:07:44.748Z,39.50
2022-09-20T02:10:40.522Z,38.72
2022-09-20T02:13:33.431Z,37.10
2022-09-20T02:16:27.428Z,34.90
2022-09-20T02:19:12.717Z,33.90
2022-09-20T02:22:04.113Z,31.67
2022-09-20T02:25:04.214Z,29.27
2022-09-20T02:28:07.539Z,27.30
2022-09-20T02:31:03.990Z,28.13
2022-09-20T02:34:10.963Z,31.60
2022-09-20T02:36:59.673Z,46.70
2022-09-20T02:39:47.168Z,37.83
2022-09-20T02:42:28.324Z,29.33
2022-09-20T02:45:12.198Z,29.30
2022-09-20T02:47:45.876Z,27.85
2022-09-20T02:50:24.951Z,26.40
2022-09-20T02:53:34.670Z,25.15
2022-09-20T02:56:22.702Z,24.65
2022-09-20T02:59:08.442Z,23.52
2022-09-20T03:01:59.569Z,22.17
2022-09-20T03:05:07.829Z,22.13
2022-09-20T03:08:04.475Z,23.58
2022-09-20T03:10:54.366Z,23.65
2022-09-20T03:13:44.687Z,25.27
2022-09-20T03:16:52.293Z,23.33
2022-09-20T03:19:37.324Z,22.50
2022-09-20T03:22:35.096Z,23.23
2022-09-20T03:25:24.505Z,23.77
2022-09-20T03:28:13.319Z,27.42
2022-09-20T03:30:58.360Z,28.88
2022-09-20T03:33:52.805Z,27.10
2022-09-20T03:36:31.600Z,32.72
2022-09-20T03:39:45.990Z,43.75
2022-09-20T03:42:32.224Z,32.50
2022-09-20T03:45:14.412Z,30.20
2022-09-20T03:48:00.477Z,31.30
2022-09-20T03:50:54.826Z,34.30
2022-09-20T03:53:43.595Z,33.60
2022-09-20T03:56:20.709Z,35.78
2022-09-20T03:59:38.205Z,33.75
2022-09-20T04:02:18.029Z,32.67
2022-09-20T04:04:53.918Z,34.42
2022-09-20T04:07:51.716Z,34.35
2022-09-20T04:10:56.428Z,36.28
2022-09-20T04:13:41.637Z,34.22
2022-09-20T04:16:45.698Z,36.55
2022-09-20T04:19:47.393Z,37.75
2022-09-20T04:22:17.647Z,38.20
2022-09-20T04:24:57.640Z,40.83
2022-09-20T04:27:39.716Z,35.67
2022-09-20T04:30:15.571Z,32.92
2022-09-20T04:33:03.408Z,31.58
2022-09-20T04:36:15.758Z,30.40
2022-09-20T04:38:47.542Z,30.73
2022-09-20T04:41:23.862Z,27.20
2022-09-20T04:44:14.988Z,29.40
2022-09-20T04:47:14.264Z,28.30
2022-09-20T04:50:22.256Z,27.88
2022-09-20T04:53:30.204Z,28.65
2022-09-20T04:56:21.378Z,28.20
2022-09-20T04:59:12.389Z,28.80
2022-09-20T05:01:56.096Z,27.65
2022-09-20T05:04:53.872Z,27.38
2022-09-20T05:07:48.096Z,28.60
2022-09-20T05:10:42.093Z,30.23
2022-09-20T05:13:32.431Z,28.73
2022-09-20T05:16:26.115Z,27.80
2022-09-20T05:19:16.893Z,28.90
2022-09-20T05:22:07.953Z,27.92
2022-09-20T05:25:15.272Z,29.13
2022-09-20T05:28:23.911Z,29.23
2022-09-20T05:31:02.584Z,30.40
2022-09-20T05:34:36.893Z,28.05
2022-09-20T05:37:25.075Z,31.00
2022-09-20T05:40:07.718Z,25.27
2022-09-20T05:42:59.858Z,24.73
2022-09-20T05:45:48.984Z,25.80
2022-09-20T05:48:48.513Z,25.38
2022-09-20T05:51:49.384Z,26.52
2022-09-20T05:54:28.264Z,28.08
2022-09-20T05:57:21.040Z,25.48
2022-09-20T06:00:03.456Z,25.02
2022-09-20T06:02:52.909Z,23.27
2022-09-20T06:05:41.015Z,25.73
2022-09-20T06:08:44.658Z,24.73
2022-09-20T06:11:44.440Z,24.38
2022-09-20T06:14:33.780Z,24.20
2022-09-20T06:17:19.664Z,25.38
2022-09-20T06:20:26.418Z,27.23
2022-09-20T06:23:00.841Z,26.70
2022-09-20T06:25:33.408Z,26.25
2022-09-20T06:28:11.143Z,26.83
2022-09-20T06:30:57.137Z,29.38
2022-09-20T06:33:30.805Z,25.13
2022-09-20T06:36:30.144Z,24.45
2022-09-20T06:39:40.096Z,26.80
2022-09-20T06:45:13.194Z,24.25
2022-09-20T06:47:43.195Z,24.83
2022-09-20T06:50:21.003Z,24.80
2022-09-20T06:52:51.647Z,24.83
2022-09-20T06:55:29.734Z,25.42
2022-09-20T06:57:59.863Z,21.63
2022-09-20T07:00:29.551Z,21.52
2022-09-20T07:02:59.519Z,23.13
2022-09-20T07:05:29.576Z,22.63
2022-09-20T07:08:03.120Z,23.33
2022-09-20T07:10:33.078Z,24.33
2022-09-20T07:13:04.578Z,24.17
2022-09-20T07:15:36.203Z,21.25
2022-09-20T07:18:06.546Z,24.50
2022-09-20T07:20:36.767Z,21.88
2022-09-20T07:23:06.425Z,22.73
2022-09-20T07:25:37.995Z,22.95
2022-09-20T07:28:09.377Z,23.13
2022-09-20T07:30:47.858Z,21.70
2022-09-20T07:33:23.891Z,20.92
2022-09-20T07:35:57.954Z,23.17
2022-09-20T07:38:28.769Z,20.35
2022-09-20T07:41:03.616Z,21.98
2022-09-20T07:43:34.311Z,23.50
2022-09-20T07:46:05.399Z,23.67
2022-09-20T07:48:38.381Z,24.10
2022-09-20T07:51:15.907Z,20.75
2022-09-20T07:53:49.684Z,22.25
2022-09-20T07:56:20.218Z,22.35
2022-09-20T07:58:52.534Z,22.77
2022-09-20T08:01:24.023Z,19.92
2022-09-20T08:03:55.532Z,21.50
2022-09-20T08:06:25.729Z,23.23
2022-09-20T08:08:57.438Z,23.65
2022-09-20T08:11:28.252Z,24.40
2022-09-20T08:14:06.172Z,27.33
2022-09-20T08:16:44.926Z,28.33
2022-09-20T08:19:23.660Z,23.23
2022-09-20T08:21:55.257Z,26.35
2022-09-20T08:24:28.005Z,27.08
2022-09-20T08:26:58.114Z,25.42
2022-09-20T08:29:30.308Z,22.55
2022-09-20T08:32:02.435Z,21.25
2022-09-20T08:37:06.807Z,21.52
2022-09-20T08:42:35.701Z,21.08
2022-09-20T08:45:22.333Z,20.27
2022-09-20T08:48:04.150Z,22.50
2022-09-20T08:50:36.157Z,21.00
2022-09-20T08:53:07.284Z,20.25
2022-09-20T08:55:44.501Z,22.33
2022-09-20T08:58:16.630Z,20.65
2022-09-20T09:00:49.429Z,21.42
2022-09-20T09:03:20.319Z,22.35
2022-09-20T09:05:56.874Z,21.90
2022-09-20T09:08:37.552Z,20.92
2022-09-20T09:11:11.073Z,20.52
2022-09-20T09:14:03.502Z,23.00
2022-09-20T09:16:39.179Z,20.48
2022-09-20T09:19:34.262Z,20.02
2022-09-20T09:22:09.037Z,22.45
2022-09-20T09:24:38.981Z,19.95
2022-09-20T09:27:23.105Z,21.25
2022-09-20T09:29:58.069Z,21.35
2022-09-20T09:32:32.770Z,20.42
2022-09-20T09:35:25.012Z,18.65
2022-09-20T09:38:04.241Z,19.27
2022-09-20T09:40:35.160Z,20.48
2022-09-20T09:43:06.091Z,19.13
2022-09-20T09:45:40.925Z,20.98
2022-09-20T09:48:42.932Z,18.83
2022-09-20T09:51:20.322Z,18.23
2022-09-20T09:53:50.852Z,18.25
2022-09-20T09:56:52.367Z,18.85
2022-09-20T09:59:26.150Z,18.45
2022-09-20T10:02:34.721Z,18.65
2022-09-20T10:05:12.017Z,17.95
2022-09-20T10:08:08.742Z,18.42
2022-09-20T10:11:15.334Z,17.98
2022-09-20T10:14:22.435Z,17.67
2022-09-20T10:17:21.326Z,18.02
2022-09-20T10:20:13.958Z,17.90
2022-09-20T10:25:58.856Z,19.45
2022-09-20T10:28:49.964Z,17.02
2022-09-20T10:31:59.474Z,18.75
2022-09-20T10:34:41.088Z,17.67
2022-09-20T10:37:36.783Z,18.10
2022-09-20T10:40:26.912Z,18.80
2022-09-20T10:43:18.655Z,19.65
2022-09-20T10:46:14.575Z,19.75
2022-09-20T10:48:53.003Z,18.13
2022-09-20T10:52:03.000Z,17.95
2022-09-20T10:54:49.507Z,20.70
2022-09-20T10:57:29.082Z,19.15
2022-09-20T11:00:21.904Z,20.27
2022-09-20T11:03:28.435Z,20.80
2022-09-20T11:06:01.051Z,20.83
2022-09-20T11:08:36.945Z,20.02
2022-09-20T11:11:21.376Z,21.67
2022-09-20T11:14:15.836Z,20.67
2022-09-20T11:17:02.166Z,21.30
2022-09-20T11:19:49.755Z,21.60
2022-09-20T11:22:25.480Z,20.75
2022-09-20T11:25:29.784Z,21.13
2022-09-20T11:28:16.744Z,22.63
2022-09-20T11:30:57.837Z,22.00
2022-09-20T11:33:50.559Z,23.83
2022-09-20T11:36:54.001Z,20.50
2022-09-20T11:39:47.492Z,21.73
2022-09-20T11:42:30.323Z,21.25
2022-09-20T11:45:00.390Z,29.98
2022-09-20T11:47:54.980Z,20.85
2022-09-20T11:50:41.105Z,19.80
2022-09-20T11:53:36.439Z,21.33
2022-09-20T11:56:13.261Z,20.25
2022-09-20T11:58:51.325Z,20.73
2022-09-20T12:01:43.948Z,21.05
2022-09-20T12:04:33.210Z,20.58
2022-09-20T12:07:10.508Z,22.27
2022-09-20T12:09:45.562Z,22.92
2022-09-20T12:12:39.707Z,21.35
2022-09-20T12:15:28.436Z,23.33
2022-09-20T12:18:03.426Z,21.98
2022-09-20T12:20:36.117Z,20.85
2022-09-20T12:23:42.742Z,22.20
2022-09-20T12:26:23.261Z,21.58
2022-09-20T12:29:06.702Z,22.77
2022-09-20T12:31:48.942Z,22.13
2022-09-20T12:34:21.831Z,20.75
2022-09-20T12:36:57.705Z,22.35
2022-09-20T12:39:35.738Z,21.40
2022-09-20T12:42:29.136Z,23.50
2022-09-20T12:45:06.844Z,23.30
2022-09-20T12:47:39.522Z,22.88
2022-09-20T12:50:35.190Z,27.20
2022-09-20T12:53:14.073Z,28.65
2022-09-20T12:56:09.230Z,25.55
2022-09-20T12:58:54.622Z,26.42
2022-09-20T13:01:24.405Z,25.40
2022-09-20T13:03:54.803Z,27.63
2022-09-20T13:06:26.564Z,36.30
2022-09-20T13:09:01.518Z,42.33
2022-09-20T13:11:42.495Z,38.92
2022-09-20T13:14:27.187Z,39.40
2022-09-20T13:17:01.587Z,32.65
2022-09-20T13:19:40.204Z,26.58
2022-09-20T13:22:28.828Z,25.65
2022-09-20T13:25:08.038Z,25.98
2022-09-20T13:27:43.081Z,25.17
2022-09-20T13:30:28.175Z,23.67
2022-09-20T13:32:58.632Z,24.70
2022-09-20T13:35:32.993Z,26.15
2022-09-20T13:38:07.234Z,27.38
2022-09-20T13:40:50.217Z,25.48
2022-09-20T13:43:42.154Z,25.58
2022-09-20T13:46:30.631Z,29.35
2022-09-20T13:49:22.460Z,35.83
2022-09-20T13:51:53.326Z,28.55
2022-09-20T13:54:36.613Z,29.50
2022-09-20T13:57:14.106Z,29.52
2022-09-20T13:59:48.264Z,29.48
2022-09-20T14:02:36.198Z,33.97
2022-09-20T14:05:08.824Z,31.95
2022-09-20T14:10:35.641Z,31.75
2022-09-20T14:13:09.578Z,31.98
2022-09-20T14:15:43.518Z,32.67
2022-09-20T14:18:22.579Z,31.35
2022-09-20T14:20:54.515Z,31.42
2022-09-20T14:23:29.103Z,29.70
2022-09-20T14:26:09.635Z,30.15
2022-09-20T14:28:39.894Z,31.13
2022-09-20T14:31:45.482Z,31.05
2022-09-20T14:34:15.649Z,30.83
2022-09-20T14:36:46.218Z,28.67
2022-09-20T14:39:20.652Z,28.45
2022-09-20T14:41:51.907Z,30.38
2022-09-20T14:44:35.205Z,27.40
2022-09-20T14:47:30.472Z,28.50
2022-09-20T14:50:00.468Z,27.73
2022-09-20T14:52:34.149Z,29.63
2022-09-20T14:55:15.727Z,28.05
2022-09-20T14:57:48.246Z,30.00
2022-09-20T15:02:49.810Z,32.35
2022-09-20T15:05:29.512Z,41.88
2022-09-20T15:08:00.472Z,40.92
2022-09-20T15:10:31.735Z,39.88
2022-09-20T15:13:01.841Z,39.80
2022-09-20T15:15:31.784Z,40.30
2022-09-20T15:18:01.541Z,40.08
2022-09-20T15:20:32.206Z,39.72
2022-09-20T15:23:03.244Z,39.80
2022-09-20T15:25:33.511Z,43.05
2022-09-20T15:28:03.586Z,42.30
2022-09-20T15:30:33.334Z,41.03
2022-09-20T15:33:03.834Z,37.83
2022-09-20T15:35:33.866Z,37.00
2022-09-20T15:38:03.215Z,38.80
2022-09-20T15:40:34.922Z,36.13
2022-09-20T15:43:04.828Z,36.67
2022-09-20T15:45:36.900Z,38.00
2022-09-20T15:50:37.148Z,40.45
2022-09-20T15:53:07.499Z,37.30
2022-09-20T15:55:42.160Z,37.55
2022-09-20T15:58:15.970Z,36.30
2022-09-20T16:00:47.857Z,36.05
2022-09-20T16:03:18.658Z,38.00
2022-09-20T16:06:04.322Z,36.83
2022-09-20T16:08:36.614Z,36.22
2022-09-20T16:11:08.666Z,36.47
2022-09-20T16:13:39.139Z,34.88
2022-09-20T16:16:11.528Z,37.00
2022-09-20T16:19:03.020Z,35.55
2022-09-20T16:21:43.907Z,33.10
2022-09-20T16:24:14.084Z,32.78
2022-09-20T16:26:44.572Z,30.73
2022-09-20T16:29:14.459Z,31.05
2022-09-20T16:31:51.887Z,30.02
2022-09-20T16:34:24.033Z,30.40
2022-09-20T16:36:55.315Z,31.05
2022-09-20T16:39:28.987Z,33.20
2022-09-20T16:42:13.532Z,31.92
2022-09-20T16:44:45.321Z,32.05
2022-09-20T16:47:24.411Z,33.42
2022-09-20T16:49:56.477Z,35.30
2022-09-20T16:52:27.495Z,36.58
2022-09-20T16:54:57.935Z,36.38
2022-09-20T16:57:27.922Z,36.95
2022-09-20T16:59:59.204Z,39.08
2022-09-20T17:02:29.823Z,39.30
2022-09-20T17:05:00.931Z,40.95
2022-09-20T17:07:32.590Z,43.20
2022-09-20T17:10:03.131Z,41.15
2022-09-20T17:12:35.525Z,41.08
2022-09-20T17:17:35.922Z,40.33
2022-09-20T17:20:09.272Z,41.40
2022-09-20T17:22:39.622Z,42.00
2022-09-20T17:25:11.473Z,39.90
2022-09-20T17:27:41.838Z,38.80
2022-09-20T17:30:12.425Z,40.13
2022-09-20T17:32:51.833Z,41.63
2022-09-20T17:35:21.836Z,41.00
2022-09-20T17:37:51.241Z,41.58
2022-09-20T17:40:21.149Z,41.60
2022-09-20T17:42:50.733Z,40.00
2022-09-20T17:45:20.539Z,39.90
2022-09-20T17:47:50.086Z,40.22
2022-09-20T17:50:19.964Z,40.53
2022-09-20T17:52:50.257Z,38.22
2022-09-20T17:55:20.028Z,37.95
2022-09-20T17:57:49.586Z,37.13
2022-09-20T18:00:19.669Z,36.03
2022-09-20T18:02:49.130Z,36.40
2022-09-20T18:05:19.017Z,35.92
2022-09-20T18:07:49.013Z,37.03
2022-09-20T18:10:18.811Z,36.55
2022-09-20T18:12:48.657Z,34.35
2022-09-20T18:15:19.561Z,36.97
2022-09-20T18:17:53.838Z,36.22
2022-09-20T18:20:24.306Z,32.38
2022-09-20T18:22:54.586Z,34.92
2022-09-20T18:25:25.056Z,33.83
2022-09-20T18:27:55.560Z,33.33
2022-09-20T18:30:25.084Z,32.08
2022-09-20T18:32:55.601Z,31.08
2022-09-20T18:35:26.136Z,31.20
2022-09-20T18:37:56.044Z,31.80
2022-09-20T18:40:25.923Z,31.42
2022-09-20T18:43:02.377Z,29.30
2022-09-20T18:45:34.003Z,28.70
2022-09-20T18:48:03.982Z,28.92
2022-09-20T18:50:33.584Z,28.90
2022-09-20T18:53:03.239Z,27.35
2022-09-20T18:55:33.323Z,28.20
2022-09-20T18:58:04.201Z,27.50
2022-09-20T19:00:35.172Z,25.67
2022-09-20T19:03:16.966Z,26.25
2022-09-20T19:05:56.772Z,24.83
2022-09-20T19:08:42.224Z,25.83
2022-09-20T19:11:19.644Z,26.73
2022-09-20T19:13:56.821Z,26.92
2022-09-20T19:16:43.159Z,27.70
2022-09-20T19:19:30.350Z,26.20
2022-09-20T19:22:03.546Z,25.67
2022-09-20T19:24:47.911Z,27.13
2022-09-20T19:27:18.022Z,31.23
2022-09-20T19:29:48.062Z,26.17
2022-09-20T19:32:23.100Z,25.02
2022-09-20T19:34:56.609Z,27.90
2022-09-20T19:38:00.531Z,27.17
2022-09-20T19:40:32.466Z,25.40
2022-09-20T19:43:04.712Z,26.50
2022-09-20T19:46:07.337Z,26.92
2022-09-20T19:48:40.510Z,24.20
2022-09-20T19:51:15.327Z,23.80
2022-09-20T19:53:45.153Z,23.40
2022-09-20T19:56:23.878Z,23.48
2022-09-20T19:58:56.250Z,23.55
2022-09-20T20:01:27.432Z,23.42
2022-09-20T20:03:57.843Z,22.60
2022-09-20T20:06:43.890Z,23.92
2022-09-20T20:09:26.653Z,22.95
2022-09-20T20:12:16.444Z,25.85
2022-09-20T20:15:23.474Z,44.25
2022-09-20T20:18:16.626Z,24.58
2022-09-20T20:20:53.157Z,22.38
2022-09-20T20:23:44.365Z,22.15
2022-09-20T20:26:25.320Z,23.77
2022-09-20T20:28:55.856Z,25.27
2022-09-20T20:31:25.596Z,25.88
2022-09-20T20:33:55.986Z,25.63
2022-09-20T20:36:26.103Z,25.40
2022-09-20T20:38:56.630Z,25.20
2022-09-20T20:41:26.463Z,24.13
2022-09-20T20:43:57.678Z,20.83
2022-09-20T20:46:27.672Z,24.90
2022-09-20T20:48:58.005Z,24.65
2022-09-20T20:51:28.579Z,22.60
2022-09-20T20:53:59.724Z,23.10
2022-09-20T20:56:31.500Z,23.75
2022-09-20T20:59:02.015Z,24.27
2022-09-20T21:01:46.925Z,22.42
2022-09-20T21:04:18.380Z,23.02
2022-09-20T21:06:48.788Z,22.92
2022-09-20T21:09:19.069Z,23.80
2022-09-20T21:11:49.603Z,23.70
2022-09-20T21:14:19.908Z,22.73
2022-09-20T21:16:49.792Z,22.80
2022-09-20T21:19:20.392Z,22.98
2022-09-20T21:21:50.387Z,22.92
2022-09-20T21:24:20.861Z,23.63
2022-09-20T21:26:50.541Z,23.00
2022-09-20T21:29:21.151Z,22.85
2022-09-20T21:31:51.012Z,21.98
2022-09-20T21:34:20.920Z,23.83
2022-09-20T21:36:50.760Z,23.90
2022-09-20T21:39:20.294Z,23.77
2022-09-20T21:41:49.892Z,23.55
2022-09-20T21:44:20.280Z,22.75
2022-09-20T21:46:50.994Z,24.33
2022-09-20T21:49:20.624Z,28.67
2022-09-20T21:51:53.464Z,32.75
2022-09-20T21:54:23.267Z,27.42
2022-09-20T21:56:56.831Z,24.42
2022-09-20T21:59:27.436Z,22.88
2022-09-20T22:01:59.949Z,23.30
2022-09-20T22:04:30.209Z,22.92
2022-09-20T22:07:00.454Z,23.75
2022-09-20T22:09:30.251Z,23.85
2022-09-20T22:11:59.872Z,23.50
2022-09-20T22:14:29.455Z,23.20
2022-09-20T22:17:00.721Z,23.35
2022-09-20T22:19:32.683Z,23.33
2022-09-20T22:22:02.261Z,24.05
2022-09-20T22:24:35.244Z,25.15
2022-09-20T22:27:05.364Z,24.52
2022-09-20T22:29:35.262Z,24.98
2022-09-20T22:32:04.892Z,22.85
2022-09-20T22:34:35.257Z,24.55
2022-09-20T22:37:05.057Z,24.92
2022-09-20T22:39:35.002Z,24.70
2022-09-20T22:42:04.565Z,25.48
2022-09-20T22:44:35.255Z,25.23
2022-09-20T22:47:05.206Z,24.75
2022-09-20T22:49:34.968Z,27.25
2022-09-20T22:52:04.777Z,24.70
2022-09-20T22:54:37.155Z,26.27
2022-09-20T22:57:07.366Z,27.75
2022-09-20T22:59:37.077Z,26.50
2022-09-20T23:02:07.775Z,25.83
2022-09-20T23:04:37.305Z,26.95
2022-09-20T23:07:07.151Z,26.00
2022-09-20T23:09:36.557Z,25.25
2022-09-20T23:12:06.980Z,27.85
2022-09-20T23:14:36.745Z,26.75
2022-09-20T23:17:06.002Z,27.58
2022-09-20T23:19:35.909Z,26.67
2022-09-20T23:22:06.022Z,27.25
2022-09-20T23:24:36.540Z,26.55
2022-09-20T23:27:06.117Z,27.83
2022-09-20T23:29:35.899Z,27.42
2022-09-20T23:32:05.737Z,27.13
2022-09-20T23:34:35.591Z,27.40
2022-09-20T23:37:05.366Z,27.23
2022-09-20T23:39:35.096Z,28.85
2022-09-20T23:42:05.177Z,27.42
2022-09-20T23:44:35.184Z,31.15
2022-09-20T23:47:05.170Z,28.38
2022-09-20T23:49:35.005Z,26.58
2022-09-20T23:52:04.885Z,26.83
2022-09-20T23:54:34.092Z,28.70
2022-09-20T23:57:04.161Z,29.50
2022-09-20T23:59:34.354Z,35.17
